sensor_id;sensor_type;location;lat;lon;timestamp;pressure;altitude;pressure_sealevel;temperature;humidity
3250;BME280;1637;42.020;23.992;2023-04-28T00:00:52;92902.19;;;4.51;88.51
3250;BME280;1637;42.020;23.992;2023-04-28T00:03:19;92898.81;;;4.24;90.58
3250;BME280;1637;42.020;23.992;2023-04-28T00:05:45;92897.94;;;4.17;90.76
3250;BME280;1637;42.020;23.992;2023-04-28T00:08:13;92897.03;;;4.05;91.67
3250;BME280;1637;42.020;23.992;2023-04-28T00:10:40;92896.97;;;4.02;92.43
3250;BME280;1637;42.020;23.992;2023-04-28T00:13:08;92905.50;;;4.14;90.95
3250;BME280;1637;42.020;23.992;2023-04-28T00:15:36;92893.09;;;3.96;92.97
3250;BME280;1637;42.020;23.992;2023-04-28T00:18:02;92905.63;;;3.72;94.39
3250;BME280;1637;42.020;23.992;2023-04-28T00:20:29;92907.16;;;3.73;94.48
3250;BME280;1637;42.020;23.992;2023-04-28T00:22:56;92908.00;;;3.81;92.40
3250;BME280;1637;42.020;23.992;2023-04-28T00:25:23;92906.47;;;3.80;92.52
3250;BME280;1637;42.020;23.992;2023-04-28T00:27:50;92904.84;;;3.72;94.37
3250;BME280;1637;42.020;23.992;2023-04-28T00:30:18;92890.09;;;3.48;93.96
3250;BME280;1637;42.020;23.992;2023-04-28T00:32:45;92903.50;;;3.36;96.13
3250;BME280;1637;42.020;23.992;2023-04-28T00:35:11;92904.16;;;3.29;96.57
3250;BME280;1637;42.020;23.992;2023-04-28T00:37:38;92911.84;;;3.38;95.82
3250;BME280;1637;42.020;23.992;2023-04-28T00:40:06;92910.25;;;3.33;95.74
3250;BME280;1637;42.020;23.992;2023-04-28T00:42:33;92903.81;;;3.31;97.14
3250;BME280;1637;42.020;23.992;2023-04-28T00:45:00;92906.94;;;3.17;98.36
3250;BME280;1637;42.020;23.992;2023-04-28T00:47:31;92913.78;;;3.41;96.43
3250;BME280;1637;42.020;23.992;2023-04-28T00:49:59;92911.75;;;3.31;96.29
3250;BME280;1637;42.020;23.992;2023-04-28T00:52:27;92908.41;;;3.15;96.47
3250;BME280;1637;42.020;23.992;2023-04-28T00:54:54;92908.66;;;3.06;97.11
3250;BME280;1637;42.020;23.992;2023-04-28T00:57:21;92912.38;;;3.24;96.00
3250;BME280;1637;42.020;23.992;2023-04-28T00:59:48;92917.91;;;3.38;96.35
3250;BME280;1637;42.020;23.992;2023-04-28T01:02:14;92922.22;;;3.47;94.40
3250;BME280;1637;42.020;23.992;2023-04-28T01:04:44;92928.28;;;3.47;93.52
3250;BME280;1637;42.020;23.992;2023-04-28T01:07:11;92919.66;;;3.54;93.07
3250;BME280;1637;42.020;23.992;2023-04-28T01:09:38;92911.00;;;3.34;94.67
3250;BME280;1637;42.020;23.992;2023-04-28T01:12:05;92912.25;;;3.17;96.08
3250;BME280;1637;42.020;23.992;2023-04-28T01:14:32;92915.16;;;3.12;96.39
3250;BME280;1637;42.020;23.992;2023-04-28T01:16:59;92909.06;;;3.08;96.66
3250;BME280;1637;42.020;23.992;2023-04-28T01:19:26;92908.84;;;2.97;97.07
3250;BME280;1637;42.020;23.992;2023-04-28T01:21:55;92910.66;;;2.93;97.55
3250;BME280;1637;42.020;23.992;2023-04-28T01:24:23;92908.53;;;2.80;97.88
3250;BME280;1637;42.020;23.992;2023-04-28T01:26:50;92917.97;;;3.00;97.18
3250;BME280;1637;42.020;23.992;2023-04-28T01:29:17;92916.19;;;2.85;97.45
3250;BME280;1637;42.020;23.992;2023-04-28T01:31:44;92915.19;;;2.93;98.01
3250;BME280;1637;42.020;23.992;2023-04-28T01:34:11;92916.94;;;3.04;97.25
3250;BME280;1637;42.020;23.992;2023-04-28T01:36:37;92913.66;;;2.72;97.20
3250;BME280;1637;42.020;23.992;2023-04-28T01:39:04;92916.72;;;2.74;97.37
3250;BME280;1637;42.020;23.992;2023-04-28T01:41:32;92907.84;;;2.63;99.07
3250;BME280;1637;42.020;23.992;2023-04-28T01:43:59;92919.38;;;2.55;99.07
3250;BME280;1637;42.020;23.992;2023-04-28T01:46:26;92915.25;;;2.38;100.00
3250;BME280;1637;42.020;23.992;2023-04-28T01:48:53;92916.88;;;2.43;100.00
3250;BME280;1637;42.020;23.992;2023-04-28T01:51:19;92916.69;;;2.36;100.00
3250;BME280;1637;42.020;23.992;2023-04-28T01:53:46;92918.91;;;2.34;100.00
3250;BME280;1637;42.020;23.992;2023-04-28T01:56:13;92909.44;;;2.14;100.00
3250;BME280;1637;42.020;23.992;2023-04-28T01:58:41;92915.31;;;2.42;100.00
3250;BME280;1637;42.020;23.992;2023-04-28T02:01:08;92917.16;;;2.57;100.00
3250;BME280;1637;42.020;23.992;2023-04-28T02:03:35;92924.19;;;2.69;98.74
3250;BME280;1637;42.020;23.992;2023-04-28T02:06:02;92914.00;;;2.71;98.36
3250;BME280;1637;42.020;23.992;2023-04-28T02:08:29;92918.84;;;2.30;99.92
3250;BME280;1637;42.020;23.992;2023-04-28T02:10:56;92919.31;;;2.17;100.00
3250;BME280;1637;42.020;23.992;2023-04-28T02:13:23;92910.06;;;2.07;100.00
3250;BME280;1637;42.020;23.992;2023-04-28T02:15:51;92920.69;;;2.11;100.00
3250;BME280;1637;42.020;23.992;2023-04-28T02:18:18;92909.31;;;1.91;100.00
3250;BME280;1637;42.020;23.992;2023-04-28T02:20:44;92923.78;;;1.97;100.00
3250;BME280;1637;42.020;23.992;2023-04-28T02:23:11;92920.38;;;1.96;100.00
3250;BME280;1637;42.020;23.992;2023-04-28T02:25:38;92927.34;;;2.04;100.00
3250;BME280;1637;42.020;23.992;2023-04-28T02:28:05;92931.03;;;2.35;100.00
3250;BME280;1637;42.020;23.992;2023-04-28T02:30:31;92927.97;;;2.33;100.00
3250;BME280;1637;42.020;23.992;2023-04-28T02:32:59;92934.22;;;2.09;100.00
3250;BME280;1637;42.020;23.992;2023-04-28T02:35:26;92936.69;;;2.18;100.00
3250;BME280;1637;42.020;23.992;2023-04-28T02:37:53;92940.91;;;2.38;100.00
3250;BME280;1637;42.020;23.992;2023-04-28T02:40:20;92944.44;;;2.61;99.78
3250;BME280;1637;42.020;23.992;2023-04-28T02:42:47;92945.50;;;2.41;100.00
3250;BME280;1637;42.020;23.992;2023-04-28T02:45:14;92938.97;;;2.35;100.00
3250;BME280;1637;42.020;23.992;2023-04-28T02:47:40;92934.59;;;2.08;100.00
3250;BME280;1637;42.020;23.992;2023-04-28T02:50:09;92939.69;;;2.16;100.00
3250;BME280;1637;42.020;23.992;2023-04-28T02:52:36;92941.38;;;2.24;99.75
3250;BME280;1637;42.020;23.992;2023-04-28T02:55:03;92954.28;;;2.45;98.20
3250;BME280;1637;42.020;23.992;2023-04-28T02:57:30;92953.28;;;2.34;97.73
3250;BME280;1637;42.020;23.992;2023-04-28T02:59:57;92961.25;;;2.53;97.64
3250;BME280;1637;42.020;23.992;2023-04-28T03:02:24;92953.50;;;2.25;98.10
3250;BME280;1637;42.020;23.992;2023-04-28T03:04:50;92951.44;;;2.19;100.00
3250;BME280;1637;42.020;23.992;2023-04-28T03:07:18;92958.78;;;2.25;100.00
3250;BME280;1637;42.020;23.992;2023-04-28T03:09:45;92960.34;;;2.30;99.86
3250;BME280;1637;42.020;23.992;2023-04-28T03:12:13;92966.75;;;2.29;100.00
3250;BME280;1637;42.020;23.992;2023-04-28T03:14:39;92966.91;;;2.01;100.00
3250;BME280;1637;42.020;23.992;2023-04-28T03:17:06;92973.97;;;1.97;100.00
3250;BME280;1637;42.020;23.992;2023-04-28T03:19:33;92967.16;;;1.80;100.00
3250;BME280;1637;42.020;23.992;2023-04-28T03:22:00;92942.63;;;1.48;100.00
3250;BME280;1637;42.020;23.992;2023-04-28T03:24:28;92984.03;;;1.76;100.00
3250;BME280;1637;42.020;23.992;2023-04-28T03:26:55;92987.00;;;1.90;100.00
3250;BME280;1637;42.020;23.992;2023-04-28T03:29:22;92992.03;;;1.95;100.00
3250;BME280;1637;42.020;23.992;2023-04-28T03:31:50;92988.53;;;1.75;100.00
3250;BME280;1637;42.020;23.992;2023-04-28T03:34:17;92997.03;;;1.53;100.00
3250;BME280;1637;42.020;23.992;2023-04-28T03:36:43;92987.16;;;1.50;100.00
3250;BME280;1637;42.020;23.992;2023-04-28T03:39:10;93000.38;;;1.65;100.00
3250;BME280;1637;42.020;23.992;2023-04-28T03:41:38;93003.94;;;1.89;100.00
3250;BME280;1637;42.020;23.992;2023-04-28T03:44:05;93005.94;;;2.58;100.00
3250;BME280;1637;42.020;23.992;2023-04-28T03:46:32;93009.88;;;2.84;95.30
3250;BME280;1637;42.020;23.992;2023-04-28T03:48:59;93013.91;;;3.16;93.77
3250;BME280;1637;42.020;23.992;2023-04-28T03:51:27;93021.38;;;3.49;90.17
3250;BME280;1637;42.020;23.992;2023-04-28T03:53:54;93025.47;;;3.89;90.05
3250;BME280;1637;42.020;23.992;2023-04-28T03:56:21;93022.44;;;3.67;87.49
3250;BME280;1637;42.020;23.992;2023-04-28T03:58:49;93015.31;;;3.29;89.68
3250;BME280;1637;42.020;23.992;2023-04-28T04:01:16;93016.84;;;3.30;90.81
3250;BME280;1637;42.020;23.992;2023-04-28T04:03:44;93021.50;;;3.18;90.71
3250;BME280;1637;42.020;23.992;2023-04-28T04:06:10;93023.38;;;3.17;91.36
3250;BME280;1637;42.020;23.992;2023-04-28T04:08:37;93026.88;;;3.83;87.39
3250;BME280;1637;42.020;23.992;2023-04-28T04:11:04;93033.66;;;4.75;82.36
3250;BME280;1637;42.020;23.992;2023-04-28T04:13:31;93028.75;;;5.07;79.87
3250;BME280;1637;42.020;23.992;2023-04-28T04:16:00;93039.72;;;4.75;80.23
3250;BME280;1637;42.020;23.992;2023-04-28T04:18:26;93037.94;;;5.76;76.60
3250;BME280;1637;42.020;23.992;2023-04-28T04:20:54;93038.03;;;5.87;74.85
3250;BME280;1637;42.020;23.992;2023-04-28T04:23:22;93043.91;;;5.70;76.74
3250;BME280;1637;42.020;23.992;2023-04-28T04:25:49;93049.66;;;5.42;76.13
3250;BME280;1637;42.020;23.992;2023-04-28T04:28:15;93050.56;;;5.53;77.40
3250;BME280;1637;42.020;23.992;2023-04-28T04:30:42;93063.00;;;5.79;74.79
3250;BME280;1637;42.020;23.992;2023-04-28T04:33:10;93059.09;;;6.03;74.61
3250;BME280;1637;42.020;23.992;2023-04-28T04:35:37;93049.66;;;6.53;72.43
3250;BME280;1637;42.020;23.992;2023-04-28T04:38:04;93058.50;;;6.64;72.00
3250;BME280;1637;42.020;23.992;2023-04-28T04:40:31;93054.31;;;6.67;71.41
3250;BME280;1637;42.020;23.992;2023-04-28T04:42:59;93057.34;;;6.17;74.42
3250;BME280;1637;42.020;23.992;2023-04-28T04:45:26;93063.66;;;6.94;72.10
3250;BME280;1637;42.020;23.992;2023-04-28T04:47:53;93071.34;;;7.10;70.24
3250;BME280;1637;42.020;23.992;2023-04-28T04:50:21;93072.88;;;7.94;67.49
3250;BME280;1637;42.020;23.992;2023-04-28T04:52:48;93074.38;;;6.53;69.79
3250;BME280;1637;42.020;23.992;2023-04-28T04:55:15;93070.31;;;6.23;72.63
3250;BME280;1637;42.020;23.992;2023-04-28T04:57:42;93065.34;;;5.50;75.40
3250;BME280;1637;42.020;23.992;2023-04-28T05:00:09;93070.41;;;6.33;72.16
3250;BME280;1637;42.020;23.992;2023-04-28T05:02:36;93075.03;;;6.40;80.70
3250;BME280;1637;42.020;23.992;2023-04-28T05:05:04;93036.97;;;5.92;74.69
3250;BME280;1637;42.020;23.992;2023-04-28T05:07:32;93071.78;;;6.61;73.43
3250;BME280;1637;42.020;23.992;2023-04-28T05:09:59;93079.66;;;7.67;69.17
3250;BME280;1637;42.020;23.992;2023-04-28T05:12:26;93092.84;;;9.17;63.17
3250;BME280;1637;42.020;23.992;2023-04-28T05:14:53;93079.41;;;7.20;67.38
3250;BME280;1637;42.020;23.992;2023-04-28T05:17:19;93072.59;;;7.30;66.77
3250;BME280;1637;42.020;23.992;2023-04-28T05:19:46;93074.09;;;7.28;67.74
3250;BME280;1637;42.020;23.992;2023-04-28T05:22:13;93081.00;;;7.32;65.14
3250;BME280;1637;42.020;23.992;2023-04-28T05:24:41;93083.63;;;8.26;66.52
3250;BME280;1637;42.020;23.992;2023-04-28T05:27:08;93089.63;;;9.79;62.06
3250;BME280;1637;42.020;23.992;2023-04-28T05:29:35;93089.34;;;9.52;62.17
3250;BME280;1637;42.020;23.992;2023-04-28T05:32:02;93095.13;;;9.19;60.75
3250;BME280;1637;42.020;23.992;2023-04-28T05:34:29;93086.31;;;9.36;61.94
3250;BME280;1637;42.020;23.992;2023-04-28T05:36:55;93081.66;;;9.72;62.36
3250;BME280;1637;42.020;23.992;2023-04-28T05:39:22;93088.75;;;10.11;60.67
3250;BME280;1637;42.020;23.992;2023-04-28T05:41:50;93102.22;;;10.66;57.94
3250;BME280;1637;42.020;23.992;2023-04-28T05:44:17;93095.53;;;10.33;57.83
3250;BME280;1637;42.020;23.992;2023-04-28T05:46:44;93084.72;;;10.47;59.27
3250;BME280;1637;42.020;23.992;2023-04-28T05:49:11;93089.63;;;11.11;56.38
3250;BME280;1637;42.020;23.992;2023-04-28T05:51:37;93086.13;;;11.18;57.24
3250;BME280;1637;42.020;23.992;2023-04-28T05:54:04;93092.69;;;11.88;54.03
3250;BME280;1637;42.020;23.992;2023-04-28T05:56:32;93102.41;;;12.09;54.44
3250;BME280;1637;42.020;23.992;2023-04-28T05:59:00;93097.59;;;12.27;53.92
3250;BME280;1637;42.020;23.992;2023-04-28T06:01:28;93099.38;;;12.37;53.04
3250;BME280;1637;42.020;23.992;2023-04-28T06:03:55;93111.78;;;12.58;51.09
3250;BME280;1637;42.020;23.992;2023-04-28T06:06:23;93112.88;;;13.38;50.17
3250;BME280;1637;42.020;23.992;2023-04-28T06:08:50;93116.63;;;13.87;48.95
3250;BME280;1637;42.020;23.992;2023-04-28T06:11:17;93107.22;;;13.95;49.26
3250;BME280;1637;42.020;23.992;2023-04-28T06:13:46;93096.34;;;14.42;48.62
3250;BME280;1637;42.020;23.992;2023-04-28T06:16:14;93101.22;;;14.99;46.62
3250;BME280;1637;42.020;23.992;2023-04-28T06:18:41;93109.25;;;15.97;42.42
3250;BME280;1637;42.020;23.992;2023-04-28T06:21:08;93111.16;;;15.67;43.92
3250;BME280;1637;42.020;23.992;2023-04-28T06:23:35;93110.06;;;15.48;42.34
3250;BME280;1637;42.020;23.992;2023-04-28T06:26:05;93113.84;;;14.70;45.57
3250;BME280;1637;42.020;23.992;2023-04-28T06:28:32;93110.69;;;15.07;44.29
3250;BME280;1637;42.020;23.992;2023-04-28T06:30:59;93104.56;;;14.55;45.69
3250;BME280;1637;42.020;23.992;2023-04-28T06:33:27;93114.47;;;14.94;45.27
3250;BME280;1637;42.020;23.992;2023-04-28T06:35:53;93114.16;;;15.86;42.70
3250;BME280;1637;42.020;23.992;2023-04-28T06:38:20;93119.59;;;16.14;41.88
3250;BME280;1637;42.020;23.992;2023-04-28T06:40:47;93112.25;;;16.69;41.76
3250;BME280;1637;42.020;23.992;2023-04-28T06:43:14;93114.38;;;15.62;43.55
3250;BME280;1637;42.020;23.992;2023-04-28T06:45:41;93119.94;;;16.71;39.87
3250;BME280;1637;42.020;23.992;2023-04-28T06:48:07;93108.94;;;15.95;37.37
3250;BME280;1637;42.020;23.992;2023-04-28T06:50:36;93117.31;;;16.13;38.61
3250;BME280;1637;42.020;23.992;2023-04-28T06:53:03;93115.72;;;16.28;39.96
3250;BME280;1637;42.020;23.992;2023-04-28T06:55:29;93100.31;;;13.74;42.43
3250;BME280;1637;42.020;23.992;2023-04-28T06:57:56;93103.34;;;14.56;41.01
3250;BME280;1637;42.020;23.992;2023-04-28T07:00:23;93099.56;;;15.38;39.59
3250;BME280;1637;42.020;23.992;2023-04-28T07:02:50;93107.41;;;15.94;42.06
3250;BME280;1637;42.020;23.992;2023-04-28T07:05:17;93103.59;;;15.62;43.01
3250;BME280;1637;42.020;23.992;2023-04-28T07:07:46;93113.13;;;14.30;43.74
3250;BME280;1637;42.020;23.992;2023-04-28T07:10:13;93107.03;;;15.79;38.90
3250;BME280;1637;42.020;23.992;2023-04-28T07:12:40;93105.56;;;15.91;37.88
3250;BME280;1637;42.020;23.992;2023-04-28T07:15:08;93117.22;;;16.17;38.71
3250;BME280;1637;42.020;23.992;2023-04-28T07:17:34;93113.53;;;17.66;36.29
3250;BME280;1637;42.020;23.992;2023-04-28T07:20:01;93108.94;;;17.03;35.97
3250;BME280;1637;42.020;23.992;2023-04-28T07:22:29;93103.50;;;16.78;39.28
3250;BME280;1637;42.020;23.992;2023-04-28T07:24:57;93106.59;;;15.80;37.21
3250;BME280;1637;42.020;23.992;2023-04-28T07:27:23;93099.16;;;15.85;36.74
3250;BME280;1637;42.020;23.992;2023-04-28T07:29:50;93100.66;;;15.57;38.82
3250;BME280;1637;42.020;23.992;2023-04-28T07:32:17;93096.06;;;15.70;38.49
3250;BME280;1637;42.020;23.992;2023-04-28T07:34:46;93099.97;;;15.20;37.70
3250;BME280;1637;42.020;23.992;2023-04-28T07:37:13;93089.63;;;14.50;40.91
3250;BME280;1637;42.020;23.992;2023-04-28T07:39:40;93094.34;;;13.87;41.67
3250;BME280;1637;42.020;23.992;2023-04-28T07:42:08;93096.63;;;14.64;40.42
3250;BME280;1637;42.020;23.992;2023-04-28T07:44:35;93091.72;;;13.83;42.46
3250;BME280;1637;42.020;23.992;2023-04-28T07:47:02;93079.81;;;13.61;41.89
3250;BME280;1637;42.020;23.992;2023-04-28T07:49:29;93089.47;;;12.61;43.03
3250;BME280;1637;42.020;23.992;2023-04-28T07:51:56;93076.97;;;13.01;43.70
3250;BME280;1637;42.020;23.992;2023-04-28T07:54:24;93078.91;;;13.48;41.93
3250;BME280;1637;42.020;23.992;2023-04-28T07:56:51;93081.50;;;13.51;40.54
3250;BME280;1637;42.020;23.992;2023-04-28T07:59:19;93085.19;;;14.76;41.31
3250;BME280;1637;42.020;23.992;2023-04-28T08:01:46;93089.47;;;16.83;34.60
3250;BME280;1637;42.020;23.992;2023-04-28T08:04:13;93078.13;;;16.46;37.13
3250;BME280;1637;42.020;23.992;2023-04-28T08:06:39;93066.41;;;14.89;39.25
3250;BME280;1637;42.020;23.992;2023-04-28T08:09:06;93087.03;;;15.44;38.01
3250;BME280;1637;42.020;23.992;2023-04-28T08:11:33;93079.38;;;15.88;36.56
3250;BME280;1637;42.020;23.992;2023-04-28T08:14:00;93076.34;;;13.60;39.44
3250;BME280;1637;42.020;23.992;2023-04-28T08:16:29;93069.28;;;13.27;40.68
3250;BME280;1637;42.020;23.992;2023-04-28T08:18:56;93062.28;;;14.84;38.45
3250;BME280;1637;42.020;23.992;2023-04-28T08:21:23;93074.69;;;13.00;41.25
3250;BME280;1637;42.020;23.992;2023-04-28T08:23:50;93065.69;;;13.33;41.84
3250;BME280;1637;42.020;23.992;2023-04-28T08:26:16;93058.34;;;14.89;41.37
3250;BME280;1637;42.020;23.992;2023-04-28T08:28:43;93070.44;;;15.45;37.54
3250;BME280;1637;42.020;23.992;2023-04-28T08:31:10;93054.69;;;13.48;41.00
3250;BME280;1637;42.020;23.992;2023-04-28T08:33:38;93054.50;;;14.54;37.46
3250;BME280;1637;42.020;23.992;2023-04-28T08:36:08;93052.00;;;15.28;36.36
3250;BME280;1637;42.020;23.992;2023-04-28T08:38:36;93043.31;;;13.60;38.91
3250;BME280;1637;42.020;23.992;2023-04-28T08:41:03;93044.88;;;13.97;40.30
3250;BME280;1637;42.020;23.992;2023-04-28T08:43:31;93046.94;;;15.13;37.52
3250;BME280;1637;42.020;23.992;2023-04-28T08:45:59;93046.75;;;15.82;36.54
3250;BME280;1637;42.020;23.992;2023-04-28T08:48:29;93039.00;;;15.23;37.69
3250;BME280;1637;42.020;23.992;2023-04-28T08:51:00;93032.06;;;12.48;40.66
3250;BME280;1637;42.020;23.992;2023-04-28T08:53:27;93040.84;;;12.52;41.73
3250;BME280;1637;42.020;23.992;2023-04-28T08:55:56;93033.19;;;13.24;41.82
3250;BME280;1637;42.020;23.992;2023-04-28T08:58:24;93043.19;;;13.67;40.93
3250;BME280;1637;42.020;23.992;2023-04-28T09:00:51;93040.66;;;14.16;39.45
3250;BME280;1637;42.020;23.992;2023-04-28T09:03:19;93037.47;;;14.40;38.03
3250;BME280;1637;42.020;23.992;2023-04-28T09:05:46;93022.13;;;13.82;38.42
3250;BME280;1637;42.020;23.992;2023-04-28T09:08:14;93034.22;;;14.65;38.21
3250;BME280;1637;42.020;23.992;2023-04-28T09:10:42;93040.03;;;14.64;37.93
3250;BME280;1637;42.020;23.992;2023-04-28T09:13:09;93032.53;;;15.04;37.11
3250;BME280;1637;42.020;23.992;2023-04-28T09:15:37;93026.72;;;14.73;40.34
3250;BME280;1637;42.020;23.992;2023-04-28T09:18:06;93031.47;;;14.33;36.85
3250;BME280;1637;42.020;23.992;2023-04-28T09:20:35;93025.44;;;14.77;39.78
3250;BME280;1637;42.020;23.992;2023-04-28T09:23:15;93015.56;;;13.63;41.52
3250;BME280;1637;42.020;23.992;2023-04-28T09:25:55;93024.94;;;13.94;41.74
3250;BME280;1637;42.020;23.992;2023-04-28T09:28:22;93023.34;;;13.37;38.59
3250;BME280;1637;42.020;23.992;2023-04-28T09:30:49;93030.44;;;13.28;39.95
3250;BME280;1637;42.020;23.992;2023-04-28T09:33:16;93067.06;;;14.04;40.10
3250;BME280;1637;42.020;23.992;2023-04-28T09:35:43;93019.88;;;14.16;39.11
3250;BME280;1637;42.020;23.992;2023-04-28T09:38:12;93013.34;;;14.33;41.09
3250;BME280;1637;42.020;23.992;2023-04-28T09:40:51;93007.66;;;14.80;38.37
3250;BME280;1637;42.020;23.992;2023-04-28T09:43:25;93005.72;;;14.81;39.38
3250;BME280;1637;42.020;23.992;2023-04-28T09:45:52;92996.19;;;13.71;38.53
3250;BME280;1637;42.020;23.992;2023-04-28T09:48:29;92998.16;;;13.04;39.72
3250;BME280;1637;42.020;23.992;2023-04-28T09:50:57;92977.41;;;13.68;42.40
3250;BME280;1637;42.020;23.992;2023-04-28T09:53:24;92984.66;;;14.07;39.89
3250;BME280;1637;42.020;23.992;2023-04-28T09:55:54;93000.44;;;13.89;38.32
3250;BME280;1637;42.020;23.992;2023-04-28T09:58:22;92957.00;;;15.04;36.84
3250;BME280;1637;42.020;23.992;2023-04-28T10:00:52;93009.47;;;15.77;34.83
3250;BME280;1637;42.020;23.992;2023-04-28T10:03:21;93000.94;;;14.88;36.67
3250;BME280;1637;42.020;23.992;2023-04-28T10:05:48;92996.84;;;15.87;37.50
3250;BME280;1637;42.020;23.992;2023-04-28T10:08:15;92995.59;;;15.62;35.69
3250;BME280;1637;42.020;23.992;2023-04-28T10:10:44;92990.56;;;14.87;37.58
3250;BME280;1637;42.020;23.992;2023-04-28T10:13:15;92991.00;;;15.88;34.49
3250;BME280;1637;42.020;23.992;2023-04-28T10:15:42;92980.56;;;16.03;34.84
3250;BME280;1637;42.020;23.992;2023-04-28T10:18:10;92972.56;;;14.67;37.16
3250;BME280;1637;42.020;23.992;2023-04-28T10:20:38;92978.72;;;14.52;38.32
3250;BME280;1637;42.020;23.992;2023-04-28T10:23:20;92982.34;;;15.52;36.76
3250;BME280;1637;42.020;23.992;2023-04-28T10:25:54;92977.78;;;16.19;34.03
3250;BME280;1637;42.020;23.992;2023-04-28T10:28:24;92970.34;;;15.81;33.45
3250;BME280;1637;42.020;23.992;2023-04-28T10:31:13;92973.16;;;15.49;34.31
3250;BME280;1637;42.020;23.992;2023-04-28T10:33:40;92996.34;;;15.63;36.68
3250;BME280;1637;42.020;23.992;2023-04-28T10:36:07;92968.25;;;14.54;35.83
3250;BME280;1637;42.020;23.992;2023-04-28T10:38:35;92964.28;;;15.20;36.45
3250;BME280;1637;42.020;23.992;2023-04-28T10:41:02;92958.81;;;15.52;36.81
3250;BME280;1637;42.020;23.992;2023-04-28T10:43:35;92955.63;;;15.41;35.58
3250;BME280;1637;42.020;23.992;2023-04-28T10:46:07;92960.44;;;15.50;35.06
3250;BME280;1637;42.020;23.992;2023-04-28T10:48:55;92951.34;;;15.72;35.15
3250;BME280;1637;42.020;23.992;2023-04-28T10:51:32;92955.03;;;16.04;34.07
3250;BME280;1637;42.020;23.992;2023-04-28T10:54:18;92921.44;;;15.38;34.92
3250;BME280;1637;42.020;23.992;2023-04-28T10:57:18;92954.00;;;16.39;35.50
3250;BME280;1637;42.020;23.992;2023-04-28T10:59:47;92953.56;;;16.79;34.46
3250;BME280;1637;42.020;23.992;2023-04-28T11:02:47;92952.69;;;16.19;33.45
3250;BME280;1637;42.020;23.992;2023-04-28T11:05:17;92962.53;;;16.00;34.25
3250;BME280;1637;42.020;23.992;2023-04-28T11:11:15;92947.53;;;15.57;33.97
3250;BME280;1637;42.020;23.992;2023-04-28T11:13:42;92937.56;;;16.34;36.73
3250;BME280;1637;42.020;23.992;2023-04-28T11:16:14;92940.16;;;16.25;37.13
3250;BME280;1637;42.020;23.992;2023-04-28T11:18:52;92950.81;;;15.90;36.07
3250;BME280;1637;42.020;23.992;2023-04-28T11:21:20;92947.28;;;16.06;36.03
3250;BME280;1637;42.020;23.992;2023-04-28T11:23:47;92953.72;;;16.97;35.12
3250;BME280;1637;42.020;23.992;2023-04-28T11:26:15;92944.38;;;17.67;34.56
3250;BME280;1637;42.020;23.992;2023-04-28T11:28:50;92953.56;;;17.70;35.25
3250;BME280;1637;42.020;23.992;2023-04-28T11:31:19;92947.75;;;17.02;35.66
3250;BME280;1637;42.020;23.992;2023-04-28T11:33:55;92958.88;;;17.04;34.05
3250;BME280;1637;42.020;23.992;2023-04-28T11:36:27;92941.97;;;16.53;34.42
3250;BME280;1637;42.020;23.992;2023-04-28T11:38:56;92931.28;;;16.49;34.78
3250;BME280;1637;42.020;23.992;2023-04-28T11:41:23;92945.97;;;16.61;34.98
3250;BME280;1637;42.020;23.992;2023-04-28T11:43:51;92934.84;;;16.59;35.71
3250;BME280;1637;42.020;23.992;2023-04-28T11:46:21;92930.00;;;17.01;35.29
3250;BME280;1637;42.020;23.992;2023-04-28T11:48:59;92928.34;;;16.82;34.05
3250;BME280;1637;42.020;23.992;2023-04-28T11:51:31;92919.38;;;16.22;35.27
3250;BME280;1637;42.020;23.992;2023-04-28T11:53:58;92928.88;;;16.64;35.33
3250;BME280;1637;42.020;23.992;2023-04-28T11:56:25;92950.19;;;16.75;33.80
3250;BME280;1637;42.020;23.992;2023-04-28T11:59:00;92924.25;;;16.65;33.82
3250;BME280;1637;42.020;23.992;2023-04-28T12:01:30;92919.25;;;16.50;34.58
3250;BME280;1637;42.020;23.992;2023-04-28T12:03:57;92912.78;;;16.48;34.11
3250;BME280;1637;42.020;23.992;2023-04-28T12:06:24;92918.88;;;16.99;35.34
3250;BME280;1637;42.020;23.992;2023-04-28T12:08:51;92918.59;;;17.19;33.62
3250;BME280;1637;42.020;23.992;2023-04-28T12:11:18;92901.31;;;16.57;34.77
3250;BME280;1637;42.020;23.992;2023-04-28T12:14:03;92904.22;;;16.49;34.89
3250;BME280;1637;42.020;23.992;2023-04-28T12:16:39;92906.59;;;16.60;33.33
3250;BME280;1637;42.020;23.992;2023-04-28T12:19:09;92901.63;;;16.59;33.73
3250;BME280;1637;42.020;23.992;2023-04-28T12:21:37;92893.97;;;16.44;34.02
3250;BME280;1637;42.020;23.992;2023-04-28T12:24:15;92888.28;;;16.17;33.46
3250;BME280;1637;42.020;23.992;2023-04-28T12:26:42;92890.53;;;15.80;33.63
3250;BME280;1637;42.020;23.992;2023-04-28T12:29:09;92887.81;;;16.31;34.22
3250;BME280;1637;42.020;23.992;2023-04-28T12:31:49;92877.88;;;16.28;35.25
3250;BME280;1637;42.020;23.992;2023-04-28T12:34:17;92875.78;;;16.45;33.56
3250;BME280;1637;42.020;23.992;2023-04-28T12:36:44;92884.31;;;16.56;34.77
3250;BME280;1637;42.020;23.992;2023-04-28T12:39:14;92873.31;;;16.50;33.46
3250;BME280;1637;42.020;23.992;2023-04-28T12:41:44;92857.84;;;16.51;33.95
3250;BME280;1637;42.020;23.992;2023-04-28T12:44:11;92863.38;;;16.35;33.27
3250;BME280;1637;42.020;23.992;2023-04-28T12:46:37;92867.94;;;16.12;33.12
3250;BME280;1637;42.020;23.992;2023-04-28T12:49:06;92870.09;;;16.30;35.11
3250;BME280;1637;42.020;23.992;2023-04-28T12:51:32;92867.00;;;16.79;32.55
3250;BME280;1637;42.020;23.992;2023-04-28T12:54:00;92862.84;;;16.87;33.95
3250;BME280;1637;42.020;23.992;2023-04-28T12:56:27;92857.41;;;16.53;34.13
3250;BME280;1637;42.020;23.992;2023-04-28T12:58:54;92863.03;;;16.58;32.39
3250;BME280;1637;42.020;23.992;2023-04-28T13:01:21;92856.25;;;16.28;33.73
3250;BME280;1637;42.020;23.992;2023-04-28T13:03:49;92863.63;;;16.15;34.66
3250;BME280;1637;42.020;23.992;2023-04-28T13:06:19;92853.16;;;16.17;32.64
3250;BME280;1637;42.020;23.992;2023-04-28T13:08:46;92859.09;;;15.87;33.42
3250;BME280;1637;42.020;23.992;2023-04-28T13:11:12;92859.28;;;15.79;32.73
3250;BME280;1637;42.020;23.992;2023-04-28T13:13:39;92861.28;;;15.79;33.30
3250;BME280;1637;42.020;23.992;2023-04-28T13:16:07;92849.03;;;15.87;32.73
3250;BME280;1637;42.020;23.992;2023-04-28T13:18:34;92851.09;;;16.08;33.47
3250;BME280;1637;42.020;23.992;2023-04-28T13:21:00;92852.19;;;16.71;34.34
3250;BME280;1637;42.020;23.992;2023-04-28T13:23:31;92771.59;;;15.97;32.95